KPHT/PHT METAR and TAF weather

Enter ICAO airport designator
Station Type Date Time Source
KPHT METAR 2020/09/20 01:55 UTC NOAA

KPHT 200155Z AUTO 02004KT 10SM BKN050 14/12 A3021 RMK A01


Station Type Date Time Source
KPHT Decoded METAR 2020/09/20 01:55 UTC NOAA

Station name not available
Sep 19, 2020 - 09:55 PM EDT / 2020.09.20 0155 UTC
Wind: from the NNE (020 degrees) at 5 MPH (4 KT):0
Visibility: 10 mile(s):0
Sky conditions: mostly cloudy
Temperature: 57 F (14 C)
Dew Point: 53 F (12 C)
Relative Humidity: 87%
Pressure (altimeter): 30.21 in. Hg (1023 hPa)
ob: KPHT 200155Z AUTO 02004KT 10SM BKN050 14/12 A3021 RMK A01
cycle: 2

Station Type Date Time Source
KPHT TAF UTC NOAA

Error!

Example: see airport list